Essex, Maryland
Current Conditions -  °F | °C
As of 10:30 PM on Wednesday 22 Oct 2014 (Local Time) from KMTN Reporting Station
Clear Clear  
Wind Chill: 54°   Ceiling: Unl
Heat Index: 54°   Visibility: 10mi
Dew Point: 46°   Wind: 21mph
Humidity: 77%   Direction: 290°WNW
Pressure: 29.91"   Gusts: 26mph
Location:  39.31°N, 76.48°W
Report Text: KMTN 230230Z AUTO 29018G23KT 10SM CLR 12/08 A2991 RMK AO2
Loading
Personal Weather Stations






























Interactive Weather Map New forecast layout! Learn more

10-Day Weather Forecast

Advertisements
Track Severe Weather on mobile